createdAt,value
2022-09-15T00:01:12.307Z,100157.91
2022-09-15T00:03:40.632Z,100144.19
2022-09-15T00:06:08.885Z,100154.88
2022-09-15T00:08:36.272Z,100142.31
2022-09-15T00:11:15.485Z,100147.47
2022-09-15T00:13:43.728Z,100146.25
2022-09-15T00:16:15.029Z,100148.09
2022-09-15T00:18:44.088Z,100151.34
2022-09-15T00:21:18.961Z,100148.03
2022-09-15T00:23:47.876Z,100147.31
2022-09-15T00:26:18.107Z,100136.97
2022-09-15T00:28:46.108Z,100137.09
2022-09-15T00:31:16.337Z,100140.16
2022-09-15T00:33:47.717Z,100152.03
2022-09-15T00:36:16.008Z,100152.66
2022-09-15T00:38:43.787Z,100152.28
2022-09-15T00:41:13.998Z,100140.44
2022-09-15T00:43:58.177Z,100143.34
2022-09-15T00:46:30.096Z,100158.09
2022-09-15T00:49:13.220Z,100152.88
2022-09-15T00:51:47.669Z,100148.03
2022-09-15T00:54:23.313Z,100155.94
2022-09-15T00:56:55.060Z,100154.91
2022-09-15T00:59:26.232Z,100153.09
2022-09-15T01:02:07.725Z,100145.25
2022-09-15T01:04:35.311Z,100148.78
2022-09-15T01:07:05.588Z,100143.94
2022-09-15T01:09:50.546Z,100144.94
2022-09-15T01:12:18.808Z,100127.75
2022-09-15T01:14:46.338Z,100135.38
2022-09-15T01:17:13.815Z,100132.22
2022-09-15T01:20:00.156Z,100124.53
2022-09-15T01:22:41.541Z,100116.75
2022-09-15T01:25:14.354Z,100117.75
2022-09-15T01:27:56.513Z,100112.69
2022-09-15T01:30:24.791Z,100096.94
2022-09-15T01:33:39.896Z,100103.72
2022-09-15T01:36:18.593Z,100109.56
2022-09-15T01:38:52.101Z,100120.75
2022-09-15T01:41:55.538Z,100120.97
2022-09-15T01:44:27.869Z,100130.59
2022-09-15T01:47:00.521Z,100143.22
2022-09-15T01:49:36.491Z,100143.88
2022-09-15T01:52:05.293Z,100139.34
2022-09-15T01:54:40.062Z,100149.28
2022-09-15T01:57:07.458Z,100149.16
2022-09-15T01:59:34.943Z,100146.59
2022-09-15T02:02:11.884Z,100134.75
2022-09-15T02:05:06.021Z,100133.16
2022-09-15T02:07:39.180Z,100120.19
2022-09-15T02:10:22.380Z,100118.72
2022-09-15T02:13:17.163Z,100112.09
2022-09-15T02:15:51.719Z,100111.94
2022-09-15T02:18:41.789Z,100093.34
2022-09-15T02:21:24.106Z,100106.25
2022-09-15T02:23:57.290Z,100095.28
2022-09-15T02:26:27.806Z,100086.41
2022-09-15T02:28:59.156Z,100085.75
2022-09-15T02:31:28.155Z,100082.28
2022-09-15T02:34:00.586Z,100071.66
2022-09-15T02:36:29.482Z,100065.53
2022-09-15T02:39:06.704Z,100058.03
2022-09-15T02:41:36.677Z,100051.78
2022-09-15T02:44:04.248Z,100038.25
2022-09-15T02:46:31.756Z,100041.50
2022-09-15T02:48:59.133Z,100032.47
2022-09-15T02:51:26.590Z,100027.44
2022-09-15T02:53:54.728Z,100024.88
2022-09-15T02:56:22.354Z,100017.41
2022-09-15T02:58:49.730Z,100004.56
2022-09-15T03:01:17.481Z,99995.38
2022-09-15T03:03:46.067Z,99980.44
2022-09-15T03:06:17.204Z,99974.94
2022-09-15T03:08:52.982Z,99979.19
2022-09-15T03:11:22.842Z,99977.69
2022-09-15T03:13:57.666Z,99972.03
2022-09-15T03:16:26.036Z,99991.06
2022-09-15T03:18:55.718Z,99986.75
2022-09-15T03:21:23.238Z,99985.88
2022-09-15T03:23:50.947Z,99968.59
2022-09-15T03:26:18.476Z,99965.97
2022-09-15T03:28:45.828Z,99956.78
2022-09-15T03:31:13.387Z,99955.78
2022-09-15T03:33:40.791Z,99950.28
2022-09-15T03:36:08.984Z,99949.31
2022-09-15T03:38:36.310Z,99943.75
2022-09-15T03:41:11.300Z,99934.44
2022-09-15T03:43:39.398Z,99929.16
2022-09-15T03:46:09.390Z,99937.50
2022-09-15T03:48:37.118Z,99951.88
2022-09-15T03:51:05.777Z,99951.41
2022-09-15T03:53:39.172Z,99944.38
2022-09-15T03:56:10.539Z,99950.16
2022-09-15T03:58:38.012Z,99965.06
2022-09-15T04:01:05.509Z,99980.59
2022-09-15T04:03:33.068Z,99987.94
2022-09-15T04:06:00.632Z,99978.09
2022-09-15T04:08:28.126Z,99971.28
2022-09-15T04:10:55.546Z,99973.50
2022-09-15T04:13:28.430Z,99979.84
2022-09-15T04:16:01.141Z,99977.44
2022-09-15T04:18:30.228Z,99962.91
2022-09-15T04:21:02.045Z,99961.88
2022-09-15T04:23:29.811Z,99970.09
2022-09-15T04:25:59.719Z,99979.66
2022-09-15T04:28:28.012Z,99979.34
2022-09-15T04:31:07.499Z,99964.94
2022-09-15T04:33:36.103Z,99978.09
2022-09-15T04:36:06.588Z,99987.56
2022-09-15T04:38:35.343Z,99983.91
2022-09-15T04:41:04.087Z,99985.00
2022-09-15T04:43:32.796Z,99983.06
2022-09-15T04:46:00.100Z,99984.66
2022-09-15T04:48:27.525Z,99989.44
2022-09-15T04:50:54.938Z,99999.56
2022-09-15T04:53:22.355Z,99987.34
2022-09-15T04:55:49.770Z,100005.31
2022-09-15T04:58:17.121Z,100022.28
2022-09-15T05:00:44.473Z,100017.78
2022-09-15T05:03:13.992Z,100025.66
2022-09-15T05:05:41.431Z,100018.81
2022-09-15T05:08:08.850Z,100020.16
2022-09-15T05:10:38.238Z,100034.19
2022-09-15T05:13:05.808Z,100043.47
2022-09-15T05:15:33.431Z,100039.28
2022-09-15T05:18:01.355Z,100049.44
2022-09-15T05:20:29.819Z,100056.59
2022-09-15T05:22:57.337Z,100062.22
2022-09-15T05:25:25.063Z,100065.69
2022-09-15T05:27:52.503Z,100070.31
2022-09-15T05:33:07.469Z,100083.63
2022-09-15T05:35:34.945Z,100086.91
2022-09-15T05:38:02.999Z,100091.31
2022-09-15T05:40:30.596Z,100090.56
2022-09-15T05:42:58.284Z,100092.44
2022-09-15T05:45:25.764Z,100090.88
2022-09-15T05:47:53.118Z,100081.75
2022-09-15T05:50:20.717Z,100076.44
2022-09-15T05:52:51.440Z,100070.00
2022-09-15T05:55:18.898Z,100076.41
2022-09-15T05:57:46.236Z,100075.66
2022-09-15T06:00:14.109Z,100074.31
2022-09-15T06:02:41.566Z,100068.44
2022-09-15T06:05:09.314Z,100075.84
2022-09-15T06:07:37.133Z,100078.44
2022-09-15T06:10:04.986Z,100076.69
2022-09-15T06:12:32.404Z,100087.75
2022-09-15T06:14:59.907Z,100087.28
2022-09-15T06:17:27.309Z,100088.63
2022-09-15T06:19:55.111Z,100089.78
2022-09-15T06:22:22.572Z,100095.31
2022-09-15T06:24:50.179Z,100091.06
2022-09-15T06:27:17.861Z,100098.78
2022-09-15T06:29:45.250Z,100099.03
2022-09-15T06:32:12.863Z,100098.16
2022-09-15T06:34:40.381Z,100094.94
2022-09-15T06:37:08.285Z,100105.59
2022-09-15T06:39:35.791Z,100108.81
2022-09-15T06:42:05.633Z,100110.25
2022-09-15T06:44:35.566Z,100120.69
2022-09-15T06:47:04.137Z,100118.63
2022-09-15T06:49:31.836Z,100122.56
2022-09-15T06:52:01.908Z,100119.69
2022-09-15T06:54:29.336Z,100113.28
2022-09-15T06:56:56.760Z,100107.00
2022-09-15T06:59:24.738Z,100121.66
2022-09-15T07:01:54.585Z,100105.41
2022-09-15T07:04:22.573Z,100111.25
2022-09-15T07:06:50.643Z,100120.28
2022-09-15T07:09:17.976Z,100110.75
2022-09-15T07:11:45.474Z,100113.97
2022-09-15T07:14:12.989Z,100120.88
2022-09-15T07:16:40.419Z,100119.31
2022-09-15T07:19:07.885Z,100118.31
2022-09-15T07:21:35.509Z,100111.28
2022-09-15T07:24:07.051Z,100114.69
2022-09-15T07:26:35.306Z,100108.06
2022-09-15T07:29:06.056Z,100104.06
2022-09-15T07:31:35.647Z,100103.72
2022-09-15T07:34:03.325Z,100098.28
2022-09-15T07:36:31.400Z,100097.91
2022-09-15T07:38:58.837Z,100082.22
2022-09-15T07:41:31.231Z,100090.19
2022-09-15T07:44:00.389Z,100084.00
2022-09-15T07:46:31.220Z,100083.63
2022-09-15T07:48:59.121Z,100083.25
2022-09-15T07:51:26.595Z,100079.59
2022-09-15T07:53:54.583Z,100081.75
2022-09-15T07:56:23.871Z,100087.50
2022-09-15T07:58:51.737Z,100083.84
2022-09-15T08:01:20.634Z,100086.53
2022-09-15T08:03:50.187Z,100080.13
2022-09-15T08:06:19.980Z,100087.69
2022-09-15T08:08:47.758Z,100085.44
2022-09-15T08:11:19.214Z,100083.09
2022-09-15T08:13:49.428Z,100084.97
2022-09-15T08:16:20.481Z,100083.97
2022-09-15T08:18:49.003Z,100084.06
2022-09-15T08:21:20.293Z,100086.78
2022-09-15T08:23:56.266Z,100083.91
2022-09-15T08:26:25.229Z,100081.63
2022-09-15T08:28:52.827Z,100080.53
2022-09-15T08:31:24.277Z,100080.50
2022-09-15T08:33:54.262Z,100070.66
2022-09-15T08:36:22.321Z,100067.03
2022-09-15T08:38:49.655Z,100064.56
2022-09-15T08:41:31.426Z,100062.72
2022-09-15T08:44:29.037Z,100055.19
2022-09-15T08:47:06.919Z,100058.31
2022-09-15T08:49:51.145Z,100048.50
2022-09-15T08:52:26.902Z,100050.03
2022-09-15T08:54:58.640Z,100047.03
2022-09-15T08:57:26.311Z,100041.19
2022-09-15T08:59:54.981Z,100049.63
2022-09-15T09:02:59.834Z,100045.81
2022-09-15T09:05:34.327Z,100045.78
2022-09-15T09:08:26.272Z,100029.66
2022-09-15T09:10:57.902Z,100031.09
2022-09-15T09:13:49.403Z,100029.44
2022-09-15T09:16:31.997Z,100022.25
2022-09-15T09:18:59.260Z,100027.13
2022-09-15T09:21:39.280Z,100022.91
2022-09-15T09:24:16.472Z,100017.84
2022-09-15T09:26:49.600Z,100010.06
2022-09-15T09:29:24.343Z,100015.34
2022-09-15T09:31:55.647Z,100015.56
2022-09-15T09:34:31.353Z,100005.25
2022-09-15T09:37:00.681Z,100008.81
2022-09-15T09:39:28.727Z,100002.47
2022-09-15T09:41:56.916Z,99992.41
2022-09-15T09:44:31.950Z,99988.78
2022-09-15T09:47:00.974Z,99982.56
2022-09-15T09:49:35.580Z,99982.34
2022-09-15T09:52:04.770Z,99981.16
2022-09-15T09:54:34.241Z,99965.84
2022-09-15T09:57:13.575Z,99972.59
2022-09-15T09:59:43.624Z,99970.44
2022-09-15T10:02:10.992Z,99960.69
2022-09-15T10:04:39.850Z,99961.53
2022-09-15T10:07:08.392Z,99960.63
2022-09-15T10:09:37.555Z,99960.69
2022-09-15T10:12:06.396Z,99953.81
2022-09-15T10:14:40.753Z,99952.47
2022-09-15T10:17:17.188Z,99952.47
2022-09-15T10:19:52.936Z,99955.53
2022-09-15T10:22:41.543Z,99953.38
2022-09-15T10:25:57.597Z,99956.94
2022-09-15T10:28:26.209Z,99952.88
2022-09-15T10:31:13.316Z,99955.94
2022-09-15T10:33:42.708Z,99958.72
2022-09-15T10:36:33.365Z,99946.94
2022-09-15T10:39:14.586Z,99945.69
2022-09-15T10:42:05.298Z,99936.88
2022-09-15T10:44:59.117Z,99930.41
2022-09-15T10:47:29.620Z,99927.88
2022-09-15T10:50:04.370Z,99921.88
2022-09-15T10:52:50.039Z,99915.78
2022-09-15T10:55:51.592Z,99906.38
2022-09-15T10:59:03.735Z,99900.88
2022-09-15T11:01:31.153Z,99893.09
2022-09-15T11:04:42.646Z,99902.25
2022-09-15T11:07:35.994Z,99894.66
2022-09-15T11:10:11.072Z,99889.28
2022-09-15T11:13:11.875Z,99893.97
2022-09-15T11:15:50.508Z,99890.53
2022-09-15T11:18:36.125Z,99885.69
2022-09-15T11:21:19.444Z,99886.44
2022-09-15T11:23:46.724Z,99888.44
2022-09-15T11:26:19.429Z,99888.78
2022-09-15T11:28:58.310Z,99880.91
2022-09-15T11:31:30.789Z,99890.53
2022-09-15T11:34:03.652Z,99874.97
2022-09-15T11:36:40.704Z,99883.50
2022-09-15T11:39:17.869Z,99880.28
2022-09-15T11:42:01.825Z,99883.88
2022-09-15T11:44:42.966Z,99876.63
2022-09-15T11:47:10.324Z,99874.72
2022-09-15T11:49:54.293Z,99860.16
2022-09-15T11:52:46.227Z,99861.88
2022-09-15T11:55:32.111Z,99853.22
2022-09-15T11:58:22.479Z,99855.94
2022-09-15T12:01:03.105Z,99852.44
2022-09-15T12:03:33.116Z,99846.38
2022-09-15T12:06:08.224Z,99849.41
2022-09-15T12:08:52.393Z,99844.06
2022-09-15T12:11:23.526Z,99854.34
2022-09-15T12:13:52.205Z,99854.56
2022-09-15T12:16:21.383Z,99857.66
2022-09-15T12:18:50.583Z,99870.22
2022-09-15T12:21:24.239Z,99864.34
2022-09-15T12:24:09.414Z,99852.63
2022-09-15T12:26:38.059Z,99855.06
2022-09-15T12:29:42.490Z,99858.53
2022-09-15T12:32:42.544Z,99858.88
2022-09-15T12:35:15.754Z,99861.69
2022-09-15T12:37:53.057Z,99862.63
2022-09-15T12:40:36.135Z,99858.13
2022-09-15T12:43:18.588Z,99860.03
2022-09-15T12:46:00.723Z,99855.91
2022-09-15T12:48:34.689Z,99855.75
2022-09-15T12:51:05.153Z,99863.78
2022-09-15T12:56:11.784Z,99852.66
2022-09-15T12:58:42.131Z,99861.19
2022-09-15T13:01:56.071Z,99855.97
2022-09-15T13:04:46.253Z,99851.94
2022-09-15T13:07:16.489Z,99845.41
2022-09-15T13:09:55.669Z,99842.13
2022-09-15T13:12:29.857Z,99848.59
2022-09-15T13:15:01.740Z,99839.72
2022-09-15T13:17:30.994Z,99837.69
2022-09-15T13:20:07.298Z,99843.22
2022-09-15T13:22:37.845Z,99833.03
2022-09-15T13:25:13.850Z,99827.19
2022-09-15T13:28:00.472Z,99825.59
2022-09-15T13:30:36.917Z,99830.50
2022-09-15T13:40:02.714Z,99835.38
2022-09-15T13:42:33.360Z,99832.22
2022-09-15T13:45:29.610Z,99822.28
2022-09-15T13:48:15.269Z,99818.91
2022-09-15T13:50:55.600Z,99804.41
2022-09-15T13:54:02.960Z,99803.06
2022-09-15T13:56:39.991Z,99788.22
2022-09-15T13:59:16.948Z,99787.97
2022-09-15T14:01:45.330Z,99793.28
2022-09-15T14:04:20.946Z,99793.25
2022-09-15T14:06:51.913Z,99794.34
2022-09-15T14:09:23.812Z,99785.13
2022-09-15T14:11:55.334Z,99776.78
2022-09-15T14:14:35.127Z,99776.66
2022-09-15T14:17:03.069Z,99782.56
2022-09-15T14:19:38.226Z,99775.28
2022-09-15T14:22:17.870Z,99786.34
2022-09-15T14:24:45.418Z,99787.16
2022-09-15T14:27:21.630Z,99783.31
2022-09-15T14:29:54.419Z,99774.69
2022-09-15T14:32:22.462Z,99775.50
2022-09-15T14:34:51.029Z,99784.75
2022-09-15T14:37:24.061Z,99777.66
2022-09-15T14:39:52.040Z,99780.25
2022-09-15T14:42:22.859Z,99786.91
2022-09-15T14:47:40.507Z,99777.88
2022-09-15T14:50:17.855Z,99771.38
2022-09-15T14:52:51.895Z,99772.34
2022-09-15T14:55:28.730Z,99773.25
2022-09-15T14:57:59.189Z,99771.75
2022-09-15T15:00:32.166Z,99784.25
2022-09-15T15:03:22.441Z,99767.16
2022-09-15T15:06:02.764Z,99763.94
2022-09-15T15:08:35.322Z,99763.31
2022-09-15T15:11:06.792Z,99758.50
2022-09-15T15:13:36.728Z,99751.84
2022-09-15T15:16:18.818Z,99744.38
2022-09-15T15:18:46.558Z,99738.81
2022-09-15T15:21:28.957Z,99733.75
2022-09-15T15:23:56.669Z,99731.56
2022-09-15T15:26:36.157Z,99735.38
2022-09-15T15:29:08.459Z,99727.81
2022-09-15T15:31:40.159Z,99715.72
2022-09-15T15:34:24.613Z,99716.53
2022-09-15T15:36:52.001Z,99707.81
2022-09-15T15:39:24.968Z,99715.84
2022-09-15T15:42:02.518Z,99707.81
2022-09-15T15:44:31.510Z,99701.56
2022-09-15T15:47:01.984Z,99700.06
2022-09-15T15:49:32.516Z,99700.91
2022-09-15T15:52:01.782Z,99694.34
2022-09-15T15:54:29.534Z,99691.81
2022-09-15T15:57:20.221Z,99703.56
2022-09-15T15:59:47.728Z,99691.22
2022-09-15T16:02:15.125Z,99692.53
2022-09-15T16:04:42.522Z,99697.13
2022-09-15T16:07:17.795Z,99691.75
2022-09-15T16:09:46.390Z,99687.44
2022-09-15T16:12:14.360Z,99691.00
2022-09-15T16:14:42.208Z,99691.84
2022-09-15T16:17:10.323Z,99694.25
2022-09-15T16:19:37.775Z,99693.75
2022-09-15T16:22:05.475Z,99693.91
2022-09-15T16:24:33.244Z,99687.88
2022-09-15T16:27:00.710Z,99689.06
2022-09-15T16:29:36.023Z,99690.44
2022-09-15T16:32:06.013Z,99690.63
2022-09-15T16:34:33.471Z,99682.91
2022-09-15T16:37:00.883Z,99687.44
2022-09-15T16:39:28.262Z,99693.06
2022-09-15T16:41:55.767Z,99690.75
2022-09-15T16:44:23.294Z,99685.53
2022-09-15T16:46:50.999Z,99674.34
2022-09-15T16:49:18.605Z,99673.75
2022-09-15T16:51:45.986Z,99678.16
2022-09-15T16:54:16.448Z,99687.72
2022-09-15T16:56:45.863Z,99675.94
2022-09-15T16:59:13.314Z,99681.38
2022-09-15T17:01:41.116Z,99675.56
2022-09-15T17:04:15.828Z,99675.72
2022-09-15T17:06:43.370Z,99675.53
2022-09-15T17:09:10.926Z,99663.03
2022-09-15T17:11:38.335Z,99666.81
2022-09-15T17:14:06.244Z,99662.16
2022-09-15T17:16:33.582Z,99658.66
2022-09-15T17:19:00.931Z,99663.53
2022-09-15T17:21:28.712Z,99660.94
2022-09-15T17:23:56.062Z,99665.13
2022-09-15T17:26:31.057Z,99658.41
2022-09-15T17:28:58.952Z,99665.09
2022-09-15T17:31:27.878Z,99661.22
2022-09-15T17:33:55.608Z,99663.97
2022-09-15T17:36:23.039Z,99662.97
2022-09-15T17:38:50.428Z,99669.16
2022-09-15T17:41:20.667Z,99674.22
2022-09-15T17:43:48.424Z,99674.03
2022-09-15T17:46:16.450Z,99677.16
2022-09-15T17:48:43.873Z,99689.34
2022-09-15T17:51:19.885Z,99692.72
2022-09-15T17:53:47.873Z,99690.34
2022-09-15T17:56:15.516Z,99694.00
2022-09-15T17:58:43.248Z,99688.72
2022-09-15T18:01:15.193Z,99694.84
2022-09-15T18:03:44.822Z,99695.09
2022-09-15T18:06:12.976Z,99706.56
2022-09-15T18:08:40.751Z,99705.53
2022-09-15T18:11:08.766Z,99709.53
2022-09-15T18:13:37.374Z,99712.03
2022-09-15T18:16:06.765Z,99712.00
2022-09-15T18:18:34.509Z,99711.16
2022-09-15T18:21:08.495Z,99711.59
2022-09-15T18:23:56.054Z,99715.47
2022-09-15T18:26:26.320Z,99722.03
2022-09-15T18:28:54.690Z,99724.56
2022-09-15T18:31:22.778Z,99722.72
2022-09-15T18:33:50.297Z,99730.34
2022-09-15T18:36:18.075Z,99741.44
2022-09-15T18:38:45.752Z,99738.53
2022-09-15T18:41:14.711Z,99742.47
2022-09-15T18:43:43.803Z,99745.44
2022-09-15T18:46:11.333Z,99745.44
2022-09-15T18:48:38.942Z,99747.50
2022-09-15T18:51:10.814Z,99747.28
2022-09-15T18:53:39.504Z,99744.78
2022-09-15T18:56:14.728Z,99746.91
2022-09-15T18:58:42.417Z,99734.28
2022-09-15T19:01:10.271Z,99744.56
2022-09-15T19:03:44.057Z,99744.53
2022-09-15T19:06:12.702Z,99742.28
2022-09-15T19:08:40.808Z,99747.75
2022-09-15T19:11:09.284Z,99760.75
2022-09-15T19:13:36.933Z,99753.88
2022-09-15T19:16:08.760Z,99764.47
2022-09-15T19:18:36.993Z,99762.41
2022-09-15T19:21:10.568Z,99766.16
2022-09-15T19:23:39.236Z,99760.97
2022-09-15T19:26:09.162Z,99760.56
2022-09-15T19:28:36.802Z,99773.09
2022-09-15T19:31:04.305Z,99768.94
2022-09-15T19:33:32.216Z,99776.50
2022-09-15T19:36:17.538Z,99775.88
2022-09-15T19:38:52.730Z,99772.94
2022-09-15T19:41:20.455Z,99780.94
2022-09-15T19:43:48.058Z,99780.91
2022-09-15T19:46:19.414Z,99777.97
2022-09-15T19:48:49.970Z,99778.19
2022-09-15T19:51:18.936Z,99778.84
2022-09-15T19:53:46.998Z,99781.41
2022-09-15T19:56:22.277Z,99798.88
2022-09-15T19:58:49.869Z,99800.19
2022-09-15T20:01:18.336Z,99792.75
2022-09-15T20:06:32.627Z,99790.09
2022-09-15T20:09:00.504Z,99791.25
2022-09-15T20:11:29.627Z,99787.22
2022-09-15T20:13:57.530Z,99792.72
2022-09-15T20:16:25.213Z,99784.06
2022-09-15T20:18:54.012Z,99790.13
2022-09-15T20:21:46.305Z,99789.28
2022-09-15T20:24:16.467Z,99795.06
2022-09-15T20:26:44.239Z,99787.72
2022-09-15T20:29:12.338Z,99795.44
2022-09-15T20:31:40.175Z,99791.97
2022-09-15T20:34:07.651Z,99795.63
2022-09-15T20:36:38.455Z,99794.59
2022-09-15T20:39:10.604Z,99785.78
2022-09-15T20:41:38.785Z,99798.53
2022-09-15T20:44:09.450Z,99795.56
2022-09-15T20:46:37.427Z,99799.03
2022-09-15T20:49:05.402Z,99803.84
2022-09-15T20:51:33.824Z,99799.94
2022-09-15T20:54:04.267Z,99802.66
2022-09-15T20:56:34.919Z,99806.19
2022-09-15T20:59:04.442Z,99803.47
2022-09-15T21:01:37.535Z,99801.75
2022-09-15T21:04:06.844Z,99798.44
2022-09-15T21:06:34.745Z,99796.59
2022-09-15T21:09:02.755Z,99803.28
2022-09-15T21:11:30.790Z,99806.78
2022-09-15T21:13:59.010Z,99806.47
2022-09-15T21:16:28.474Z,99806.72
2022-09-15T21:18:57.994Z,99802.59
2022-09-15T21:21:29.920Z,99806.25
2022-09-15T21:24:04.001Z,99812.22
2022-09-15T21:27:00.371Z,99819.72
2022-09-15T21:29:28.543Z,99818.00
2022-09-15T21:31:56.368Z,99817.91
2022-09-15T21:34:24.198Z,99811.84
2022-09-15T21:36:53.640Z,99810.44
2022-09-15T21:39:21.592Z,99812.75
2022-09-15T21:41:49.802Z,99817.47
2022-09-15T21:44:17.537Z,99820.47
2022-09-15T21:46:46.970Z,99812.91
2022-09-15T21:49:14.724Z,99814.19
2022-09-15T21:51:42.250Z,99801.97
2022-09-15T21:54:10.195Z,99814.88
2022-09-15T21:56:37.749Z,99818.06
2022-09-15T21:59:05.417Z,99822.66
2022-09-15T22:01:33.327Z,99806.47
2022-09-15T22:04:03.344Z,99814.81
2022-09-15T22:06:40.576Z,99813.75
2022-09-15T22:09:14.788Z,99811.03
2022-09-15T22:11:42.301Z,99807.03
2022-09-15T22:14:10.433Z,99802.66
2022-09-15T22:16:39.507Z,99811.19
2022-09-15T22:19:09.803Z,99807.19
2022-09-15T22:21:41.624Z,99812.63
2022-09-15T22:24:12.865Z,99820.47
2022-09-15T22:26:42.498Z,99810.34
2022-09-15T22:29:10.652Z,99812.34
2022-09-15T22:31:38.700Z,99812.34
2022-09-15T22:34:06.231Z,99812.84
2022-09-15T22:36:34.269Z,99807.47
2022-09-15T22:39:06.024Z,99811.81
2022-09-15T22:41:37.091Z,99808.84
2022-09-15T22:44:06.287Z,99807.75
2022-09-15T22:46:33.923Z,99803.59
2022-09-15T22:49:01.818Z,99809.94
2022-09-15T22:51:29.662Z,99811.34
2022-09-15T22:53:57.674Z,99815.44
2022-09-15T22:56:26.270Z,99812.25
2022-09-15T22:58:55.840Z,99806.91
2022-09-15T23:01:26.764Z,99813.72
2022-09-15T23:03:56.625Z,99809.59
2022-09-15T23:06:26.668Z,99810.13
2022-09-15T23:08:56.282Z,99811.31
2022-09-15T23:11:24.884Z,99820.56
2022-09-15T23:13:53.372Z,99810.91
2022-09-15T23:16:22.488Z,99809.81
2022-09-15T23:18:51.189Z,99808.69
2022-09-15T23:21:19.220Z,99809.44
2022-09-15T23:23:48.829Z,99801.41
2022-09-15T23:26:18.406Z,99807.63
2022-09-15T23:28:46.538Z,99800.59
2022-09-15T23:31:14.484Z,99797.56
2022-09-15T23:33:42.677Z,99798.88
2022-09-15T23:36:13.499Z,99809.34
2022-09-15T23:38:43.334Z,99816.22
2022-09-15T23:41:11.910Z,99810.03
2022-09-15T23:43:39.701Z,99808.59
2022-09-15T23:46:07.566Z,99800.59
2022-09-15T23:48:35.487Z,99799.59
2022-09-15T23:51:03.778Z,99798.75
2022-09-15T23:53:31.281Z,99796.31
2022-09-15T23:55:58.714Z,99804.44
2022-09-15T23:58:26.139Z,99799.44
